Time;durP1;ratioP1;P1;durP2;ratioP2;P2;SDS_P1;SDS_P2;PMS_P1;PMS_P2;Temp;Humidity;BMP_temperature;BMP_pressure;BME280_temperature;BME280_humidity;BME280_pressure;Samples;Min_cycle;Max_cycle;Signal;HPM_P1;HPM_P2
2023/08/17 00:01:40;;;;;;;2.20;2.10;;;20.70;99.90;;;;;;5022918;28;20029;-77
2023/08/17 00:04:05;;;;;;;1.92;1.83;;;20.70;99.90;;;;;;5038137;28;20110;-77
2023/08/17 00:06:31;;;;;;;1.75;1.65;;;20.60;99.90;;;;;;5028728;28;20025;-77
2023/08/17 00:08:57;;;;;;;1.58;1.48;;;20.60;99.90;;;;;;5017073;28;20029;-78
2023/08/17 00:11:22;;;;;;;1.98;1.88;;;20.60;99.90;;;;;;5012250;28;20022;-78
2023/08/17 00:13:48;;;;;;;1.90;1.80;;;20.60;99.90;;;;;;5012774;28;20029;-78
2023/08/17 00:16:14;;;;;;;1.42;1.42;;;20.60;99.90;;;;;;5017917;28;20045;-78
2023/08/17 00:18:39;;;;;;;1.90;1.80;;;20.60;99.90;;;;;;5016137;28;20014;-78
2023/08/17 00:21:05;;;;;;;1.80;1.70;;;20.50;99.90;;;;;;5013134;28;20088;-78
2023/08/17 00:23:31;;;;;;;1.85;1.75;;;20.50;99.90;;;;;;5016547;28;20026;-77
2023/08/17 00:25:57;;;;;;;1.77;1.67;;;20.40;99.90;;;;;;5015914;28;20030;-78
2023/08/17 00:28:22;;;;;;;1.52;1.48;;;20.50;99.90;;;;;;5020778;28;20531;-77
2023/08/17 00:30:48;;;;;;;1.80;1.70;;;20.50;99.90;;;;;;5022095;28;20069;-77
2023/08/17 00:33:13;;;;;;;1.80;1.70;;;20.50;99.90;;;;;;5023676;28;20602;-76
2023/08/17 00:35:39;;;;;;;1.80;1.70;;;20.50;99.90;;;;;;5035783;28;20018;-76
2023/08/17 00:38:05;;;;;;;1.60;1.50;;;20.40;99.90;;;;;;5021236;28;20084;-77
2023/08/17 00:40:30;;;;;;;1.80;1.70;;;20.40;99.90;;;;;;5017169;28;20032;-77
2023/08/17 00:42:56;;;;;;;1.52;1.42;;;20.40;99.90;;;;;;5009083;28;20112;-77
2023/08/17 00:45:23;;;;;;;1.67;1.58;;;20.30;99.90;;;;;;5013426;28;20026;-77
2023/08/17 00:47:49;;;;;;;1.83;1.73;;;20.30;99.90;;;;;;5022371;28;20022;-77
2023/08/17 00:50:15;;;;;;;1.90;1.80;;;20.30;99.90;;;;;;5017319;28;20176;-76
2023/08/17 00:52:42;;;;;;;1.63;1.60;;;20.40;99.90;;;;;;5010741;28;20037;-77
2023/08/17 00:55:10;;;;;;;1.80;1.70;;;20.40;99.90;;;;;;5013938;28;20017;-76
2023/08/17 00:57:36;;;;;;;1.35;1.33;;;20.40;99.90;;;;;;5012345;28;20026;-78
2023/08/17 01:00:04;;;;;;;1.90;1.80;;;20.40;99.90;;;;;;5020245;28;20148;-77
2023/08/17 01:02:30;;;;;;;1.70;1.60;;;20.50;99.90;;;;;;5020238;28;20125;-77
2023/08/17 01:04:56;;;;;;;1.95;1.85;;;20.50;99.90;;;;;;5015077;28;20052;-78
2023/08/17 01:07:22;;;;;;;2.03;1.92;;;20.50;99.90;;;;;;5014554;28;20022;-77
2023/08/17 01:09:47;;;;;;;1.60;1.50;;;20.50;99.90;;;;;;5016494;28;20368;-77
2023/08/17 01:12:38;;;;;;;1.75;1.65;;;20.50;99.90;;;;;;5026105;28;20029;-78
2023/08/17 01:15:09;;;;;;;1.58;1.48;;;20.40;99.90;;;;;;5013306;28;20460;-77
2023/08/17 01:17:45;;;;;;;1.67;1.58;;;20.40;99.90;;;;;;5013159;28;20068;-77
2023/08/17 01:20:13;;;;;;;1.45;1.45;;;20.40;99.90;;;;;;5022465;28;20025;-77
2023/08/17 01:22:42;;;;;;;1.65;1.55;;;20.30;99.90;;;;;;5017652;28;20112;-77
2023/08/17 01:25:08;;;;;;;1.75;1.65;;;20.30;99.90;;;;;;5017618;28;20049;-77
2023/08/17 01:27:43;;;;;;;1.58;1.48;;;20.30;99.90;;;;;;5018623;28;20524;-77
2023/08/17 01:30:10;;;;;;;1.85;1.75;;;20.20;99.90;;;;;;5028984;28;20105;-77
2023/08/17 01:32:49;;;;;;;2.20;2.10;;;20.20;99.90;;;;;;5029959;28;20021;-78
2023/08/17 01:35:41;;;;;;;2.75;2.30;;;20.20;99.90;;;;;;5018041;28;20022;-77
2023/08/17 01:38:17;;;;;;;2.40;2.20;;;20.10;99.90;;;;;;4989304;28;20052;-77
2023/08/17 01:40:46;;;;;;;2.83;2.63;;;20.10;99.90;;;;;;5022730;28;20288;-77
2023/08/17 01:43:12;;;;;;;2.40;2.30;;;20.10;99.90;;;;;;5040939;28;20053;-77
2023/08/17 01:45:38;;;;;;;2.40;2.30;;;20.00;99.90;;;;;;5026552;28;20017;-77
2023/08/17 01:48:04;;;;;;;2.47;2.38;;;20.00;99.90;;;;;;5004525;28;20357;-77
2023/08/17 01:50:30;;;;;;;2.10;2.00;;;20.00;99.90;;;;;;5000588;28;20053;-77
2023/08/17 01:52:55;;;;;;;2.30;2.20;;;19.90;99.90;;;;;;5019658;28;20030;-77
2023/08/17 01:55:23;;;;;;;2.53;2.35;;;19.90;99.90;;;;;;5028827;28;20029;-77
2023/08/17 01:57:49;;;;;;;1.90;1.80;;;19.90;99.90;;;;;;5028208;28;20030;-77
2023/08/17 02:00:15;;;;;;;2.40;2.30;;;19.80;99.90;;;;;;5029830;28;20029;-77
2023/08/17 02:02:41;;;;;;;2.83;2.63;;;19.80;99.90;;;;;;5029801;28;20205;-77
2023/08/17 02:05:07;;;;;;;2.78;2.58;;;19.70;99.90;;;;;;5012787;28;20014;-77
2023/08/17 02:07:33;;;;;;;2.55;2.45;;;19.70;99.90;;;;;;5029041;28;20392;-77
2023/08/17 02:09:58;;;;;;;2.90;2.70;;;19.70;99.90;;;;;;5030301;28;20030;-78
2023/08/17 02:12:24;;;;;;;2.95;2.75;;;19.70;99.90;;;;;;5031316;28;20030;-78
2023/08/17 02:14:50;;;;;;;2.63;2.50;;;19.60;99.90;;;;;;5019467;28;20405;-76
2023/08/17 02:17:16;;;;;;;2.53;2.42;;;19.60;99.90;;;;;;5020009;28;20108;-77
2023/08/17 02:19:47;;;;;;;2.53;2.42;;;19.60;99.90;;;;;;5006746;28;20046;-77
2023/08/17 02:22:13;;;;;;;2.05;1.95;;;19.60;99.90;;;;;;5015810;28;20068;-77
2023/08/17 02:24:39;;;;;;;2.00;1.80;;;19.60;99.90;;;;;;5015644;28;20109;-77
2023/08/17 02:27:04;;;;;;;1.98;1.88;;;19.60;99.90;;;;;;5023262;28;20025;-77
2023/08/17 02:29:30;;;;;;;2.35;2.25;;;19.60;99.90;;;;;;5023000;28;20481;-76
2023/08/17 02:31:56;;;;;;;2.38;2.28;;;19.60;99.90;;;;;;5015248;28;20073;-77
2023/08/17 02:34:21;;;;;;;2.25;2.15;;;19.50;99.90;;;;;;5015925;28;20029;-77
2023/08/17 02:36:47;;;;;;;1.80;1.70;;;19.60;99.90;;;;;;5009703;28;20032;-78
2023/08/17 02:39:13;;;;;;;1.67;1.67;;;19.60;99.90;;;;;;5017192;28;20097;-77
2023/08/17 02:41:39;;;;;;;2.03;1.92;;;19.50;99.90;;;;;;5016593;28;20041;-77
2023/08/17 02:44:04;;;;;;;1.75;1.67;;;19.60;99.90;;;;;;5019078;28;20380;-77
2023/08/17 02:46:30;;;;;;;2.28;2.17;;;19.50;99.90;;;;;;5017266;28;20037;-77
2023/08/17 02:48:56;;;;;;;2.15;2.05;;;19.50;99.90;;;;;;5025324;28;20029;-77
2023/08/17 02:51:22;;;;;;;2.50;2.40;;;19.50;99.90;;;;;;5015454;28;20111;-77
2023/08/17 02:53:47;;;;;;;2.33;2.22;;;19.40;99.90;;;;;;5015496;28;20115;-77
2023/08/17 02:56:13;;;;;;;2.83;2.63;;;19.40;99.90;;;;;;5014570;28;20053;-77
2023/08/17 02:58:42;;;;;;;3.00;2.80;;;19.40;99.90;;;;;;5018500;28;20072;-77
2023/08/17 03:01:08;;;;;;;2.80;2.60;;;19.40;99.90;;;;;;5020120;28;20026;-77
2023/08/17 03:03:34;;;;;;;2.30;2.20;;;19.30;99.90;;;;;;5018182;28;20026;-77
2023/08/17 03:06:01;;;;;;;2.63;2.47;;;19.30;99.90;;;;;;4994749;28;20026;-78
2023/08/17 03:08:26;;;;;;;2.80;2.60;;;19.30;99.90;;;;;;5017521;28;20087;-77
2023/08/17 03:10:52;;;;;;;2.42;2.25;;;19.30;99.90;;;;;;5014552;28;20120;-77
2023/08/17 03:13:18;;;;;;;2.45;2.25;;;19.20;99.90;;;;;;5017313;28;20030;-77
2023/08/17 03:15:43;;;;;;;2.67;2.47;;;19.20;99.90;;;;;;5019353;28;20025;-77
2023/08/17 03:18:09;;;;;;;3.08;2.88;;;19.20;99.90;;;;;;5025780;28;20041;-77
2023/08/17 03:20:35;;;;;;;2.53;2.40;;;19.20;99.90;;;;;;5020175;28;20473;-77
2023/08/17 03:23:00;;;;;;;2.42;2.33;;;19.10;99.90;;;;;;5015749;28;20453;-76
2023/08/17 03:25:26;;;;;;;2.47;2.38;;;19.10;99.90;;;;;;5014384;28;20041;-77
2023/08/17 03:27:52;;;;;;;2.10;2.00;;;19.10;99.90;;;;;;5013476;28;20030;-77
2023/08/17 03:30:18;;;;;;;2.78;2.58;;;19.10;99.90;;;;;;5016679;28;20538;-77
2023/08/17 03:32:44;;;;;;;2.63;2.42;;;;;;;;;;4999785;28;20033;-78
2023/08/17 03:35:10;;;;;;;2.67;2.58;;;;;;;;;;4994795;28;20499;-77
2023/08/17 03:37:36;;;;;;;2.80;2.60;;;;;;;;;;5018663;28;20037;-78
2023/08/17 03:40:02;;;;;;;2.38;2.28;;;;;;;;;;5031013;28;20014;-75
2023/08/17 03:42:29;;;;;;;2.42;2.22;;;;;;;;;;5020020;28;20074;-76
2023/08/17 03:44:55;;;;;;;2.58;2.38;;;;;;;;;;5023766;28;20025;-77
2023/08/17 03:47:21;;;;;;;2.60;2.40;;;;;;;;;;5017078;28;20033;-77
2023/08/17 03:49:47;;;;;;;2.70;2.50;;;;;;;;;;5009219;28;20029;-76
2023/08/17 03:52:13;;;;;;;3.03;2.83;;;;;;;;;;5014370;28;20046;-77
2023/08/17 03:54:39;;;;;;;2.47;2.38;;;;;;;;;;5021717;28;20014;-77
2023/08/17 03:57:05;;;;;;;2.80;2.60;;;;;;;;;;5016811;28;20026;-77
2023/08/17 03:59:31;;;;;;;2.42;2.22;;;;;;;;;;5011810;28;20075;-77
2023/08/17 04:01:57;;;;;;;2.30;2.20;;;;;;;;;;5017334;28;20026;-77
2023/08/17 04:04:24;;;;;;;2.55;2.35;;;;;;;;;;5017442;28;20018;-77
2023/08/17 04:06:50;;;;;;;2.78;2.58;;;;;;;;;;5015041;28;20029;-77
2023/08/17 04:09:16;;;;;;;2.22;2.13;;;;;;;;;;5016984;28;20090;-78
2023/08/17 04:11:42;;;;;;;2.40;2.30;;;;;;;;;;5015678;28;20029;-76
2023/08/17 04:14:08;;;;;;;2.20;2.10;;;;;;;;;;5014431;28;20080;-76
2023/08/17 04:16:35;;;;;;;2.47;2.30;;;;;;;;;;5018263;28;20020;-77
2023/08/17 04:19:01;;;;;;;2.30;2.20;;;;;;;;;;5015148;28;20019;-80
2023/08/17 04:21:27;;;;;;;2.10;2.00;;;;;;;;;;5022682;28;20026;-83
2023/08/17 04:23:53;;;;;;;1.95;1.85;;;;;;;;;;5016781;28;20098;-81
2023/08/17 04:26:20;;;;;;;2.25;2.15;;;;;;;;;;5021690;28;20029;-82
2023/08/17 04:28:46;;;;;;;2.22;2.13;;;;;;;;;;5003721;28;20033;-81
2023/08/17 04:31:12;;;;;;;2.30;2.20;;;;;;;;;;5009288;28;20033;-80
2023/08/17 04:33:38;;;;;;;1.95;1.85;;;;;;;;;;5022428;28;20029;-78
2023/08/17 04:36:05;;;;;;;1.90;1.80;;;;;;;;;;5033106;28;20025;-78
2023/08/17 04:38:31;;;;;;;2.17;2.08;;;;;;;;;;5024717;28;20106;-79
2023/08/17 04:40:57;;;;;;;2.17;2.08;;;;;;;;;;4998104;28;20026;-81
2023/08/17 04:43:23;;;;;;;1.90;1.80;;;;;;;;;;5004128;28;20109;-78
2023/08/17 04:45:49;;;;;;;2.50;2.30;;;;;;;;;;5022158;28;20029;-77
2023/08/17 04:48:15;;;;;;;2.05;1.88;;;;;;;;;;5021744;28;20038;-80
2023/08/17 04:50:41;;;;;;;1.90;1.80;;;;;;;;;;5022512;28;20374;-79
2023/08/17 04:53:07;;;;;;;2.10;2.00;;;;;;;;;;5002851;28;20026;-78
2023/08/17 04:55:33;;;;;;;2.22;2.13;;;;;;;;;;5020254;28;20029;-80
2023/08/17 04:58:02;;;;;;;1.90;1.80;;;;;;;;;;5021238;28;20048;-81
2023/08/17 05:00:30;;;;;;;2.15;2.05;;;;;;;;;;5027122;28;20097;-81
2023/08/17 05:02:56;;;;;;;1.80;1.70;;;;;;;;;;5021652;28;20041;-78
2023/08/17 05:05:23;;;;;;;1.70;1.60;;;;;;;;;;5031412;28;20117;-79
2023/08/17 05:07:49;;;;;;;2.03;1.92;;;;;;;;;;5005097;28;20037;-78
2023/08/17 05:10:15;;;;;;;2.25;2.10;;;;;;;;;;5021809;28;20053;-80
2023/08/17 05:12:41;;;;;;;2.10;2.00;;;;;;;;;;5027090;28;20021;-79
2023/08/17 05:15:07;;;;;;;2.40;2.20;;;;;;;;;;5031852;28;20068;-79
2023/08/17 05:17:34;;;;;;;1.80;1.70;;;;;;;;;;5041211;28;20022;-81
2023/08/17 05:20:00;;;;;;;1.95;1.85;;;;;;;;;;5049129;28;20029;-79
2023/08/17 05:22:26;;;;;;;2.10;2.00;;;;;;;;;;5028427;28;20088;-80
2023/08/17 05:24:52;;;;;;;2.13;2.03;;;;;;;;;;5023236;28;20041;-81
2023/08/17 05:27:18;;;;;;;2.75;2.55;;;;;;;;;;5025406;28;20090;-80
2023/08/17 05:29:44;;;;;;;2.70;2.50;;;;;;;;;;5031842;28;20026;-79
2023/08/17 05:32:10;;;;;;;1.90;1.80;;;;;;;;;;5029379;28;20033;-80
2023/08/17 05:34:36;;;;;;;2.28;2.17;;;;;;;;;;5008791;28;20030;-80
2023/08/17 05:37:03;;;;;;;2.00;1.90;;;;;;;;;;4998746;28;20038;-78
2023/08/17 05:39:29;;;;;;;2.35;2.25;;;;;;;;;;5016691;28;20018;-78
2023/08/17 05:41:55;;;;;;;2.70;2.50;;;;;;;;;;5019942;28;20021;-79
2023/08/17 05:44:21;;;;;;;2.70;2.50;;;;;;;;;;5028933;28;20094;-80
2023/08/17 05:46:48;;;;;;;2.92;2.72;;;;;;;;;;4998861;28;20049;-81
2023/08/17 05:49:14;;;;;;;2.70;2.50;;;;;;;;;;5008017;28;20018;-79
2023/08/17 05:51:40;;;;;;;3.08;2.88;;;;;;;;;;5035874;28;20032;-79
2023/08/17 05:54:07;;;;;;;2.80;2.60;;;;;;;;;;5035965;28;20041;-79
2023/08/17 05:56:33;;;;;;;3.08;2.88;;;;;;;;;;5038833;28;20044;-79
2023/08/17 05:58:59;;;;;;;3.20;3.00;;;;;;;;;;5039153;28;20006;-78
2023/08/17 06:01:25;;;;;;;2.72;2.53;;;;;;;;;;5039096;28;20021;-79
2023/08/17 06:03:51;;;;;;;3.10;2.90;;;;;;;;;;5021484;28;20110;-80
2023/08/17 06:06:17;;;;;;;3.13;2.90;;;;;;;;;;5038833;28;20026;-78
2023/08/17 06:08:44;;;;;;;3.28;3.08;;;;;;;;;;5039742;28;20037;-80
2023/08/17 06:11:10;;;;;;;3.22;3.00;;;;;;;;;;5021846;28;20022;-80
2023/08/17 06:13:36;;;;;;;3.97;3.15;;;;;;;;;;5039222;28;20041;-81
2023/08/17 06:16:02;;;;;;;5.97;4.03;;;;;;;;;;5038910;28;20060;-81
2023/08/17 06:18:30;;;;;;;4.10;3.80;;;;;;;;;;5038405;28;20076;-79
2023/08/17 06:20:56;;;;;;;3.35;3.15;;;;;;;;;;5021587;28;20018;-78
2023/08/17 06:23:22;;;;;;;4.07;3.70;;;;;;;;;;5037826;28;20030;-81
2023/08/17 06:25:48;;;;;;;3.60;3.33;;;;;;;;;;5038836;28;20022;-80
2023/08/17 06:28:14;;;;;;;2.90;2.70;;;;;;;;;;5021601;28;20052;-80
2023/08/17 06:30:41;;;;;;;2.97;2.67;;;;;;;;;;5037455;28;20045;-79
2023/08/17 06:33:08;;;;;;;3.17;2.97;;;;;;;;;;5019895;28;20030;-79
2023/08/17 06:35:34;;;;;;;2.97;2.78;;;;;;;;;;5037391;28;20029;-80
2023/08/17 06:38:00;;;;;;;3.05;2.85;;;;;;;;;;5037528;28;20021;-80
2023/08/17 06:40:26;;;;;;;2.33;2.22;;;;;;;;;;5037838;28;20053;-81
2023/08/17 06:42:54;;;;;;;2.42;2.33;;;;;;;;;;5020964;28;20461;-82
2023/08/17 06:45:20;;;;;;;2.10;2.00;;;;;;;;;;5038580;28;20036;-81
2023/08/17 06:47:48;;;;;;;2.00;1.90;;;;;;;;;;5021606;28;20025;-81
2023/08/17 06:50:18;;;;;;;1.98;1.88;;;;;;;;;;5038115;28;20002;-83
2023/08/17 06:52:58;;;;;;;2.40;2.20;;;;;;;;;;5025557;28;20022;-83
2023/08/17 06:55:25;;;;;;;2.15;1.95;;;;;;;;;;5041184;28;20041;-84
2023/08/17 06:58:05;;;;;;;1.95;1.85;;;;;;;;;;5041325;28;20041;-82
2023/08/17 07:00:35;;;;;;;1.92;1.83;;;;;;;;;;5058077;28;20036;-83
2023/08/17 07:03:04;;;;;;;1.90;1.80;;;28.30;62.90;;;;;;5021467;28;20029;-82
2023/08/17 07:05:30;;;;;;;1.50;1.50;;;27.20;67.50;;;;;;5005404;28;20045;-81
2023/08/17 07:07:57;;;;;;;2.00;1.90;;;26.20;70.40;;;;;;5038402;28;20030;-82
2023/08/17 07:10:23;;;;;;;2.30;2.20;;;25.50;73.30;;;;;;5021135;28;20030;-81
2023/08/17 07:12:48;;;;;;;2.00;1.90;;;25.00;75.70;;;;;;5038408;28;20166;-81
2023/08/17 07:15:15;;;;;;;2.67;2.53;;;24.60;77.60;;;;;;5038208;28;20026;-81
2023/08/17 07:17:41;;;;;;;2.88;2.67;;;24.30;79.50;;;;;;5038527;28;20046;-81
2023/08/17 07:20:08;;;;;;;2.85;2.65;;;24.20;81.00;;;;;;5038410;28;20049;-82
2023/08/17 07:22:34;;;;;;;3.30;3.00;;;24.00;82.00;;;;;;5021231;28;20029;-82
2023/08/17 07:25:00;;;;;;;2.67;2.50;;;24.00;82.70;;;;;;5021061;28;20041;-83
2023/08/17 07:27:26;;;;;;;3.35;3.15;;;23.90;83.40;;;;;;5021246;28;20048;-81
2023/08/17 07:29:51;;;;;;;2.90;2.60;;;23.90;83.80;;;;;;5021315;28;20014;-82
2023/08/17 07:32:17;;;;;;;3.00;2.80;;;23.80;84.30;;;;;;5038383;28;20037;-81
2023/08/17 07:34:43;;;;;;;3.40;3.10;;;23.90;84.60;;;;;;5020981;28;20096;-82
2023/08/17 07:37:09;;;;;;;3.40;3.20;;;23.90;84.40;;;;;;5021275;28;20037;-83
2023/08/17 07:39:35;;;;;;;3.95;3.65;;;24.00;84.20;;;;;;5021617;28;20022;-80
2023/08/17 07:42:01;;;;;;;3.00;2.80;;;24.00;84.00;;;;;;5021011;28;20101;-79
2023/08/17 07:44:28;;;;;;;3.75;3.45;;;24.20;83.90;;;;;;5037922;28;20057;-77
2023/08/17 07:46:54;;;;;;;3.53;3.33;;;24.20;83.60;;;;;;5020391;28;20064;-80
2023/08/17 07:49:20;;;;;;;3.38;3.17;;;24.30;83.30;;;;;;5038018;28;20034;-79
2023/08/17 07:51:45;;;;;;;3.22;3.03;;;24.40;83.20;;;;;;5037865;28;20044;-80
2023/08/17 07:54:11;;;;;;;3.50;3.30;;;24.50;82.70;;;;;;5037900;28;20077;-80
2023/08/17 07:56:37;;;;;;;3.33;3.13;;;24.60;82.10;;;;;;5037867;28;20030;-79
2023/08/17 07:59:02;;;;;;;3.17;2.97;;;24.70;81.80;;;;;;5037784;28;20073;-78
2023/08/17 08:01:28;;;;;;;3.10;2.90;;;24.80;81.40;;;;;;5035270;28;20030;-79
2023/08/17 08:03:54;;;;;;;3.47;3.17;;;24.90;80.90;;;;;;5035028;28;20026;-78
2023/08/17 08:06:20;;;;;;;3.25;3.05;;;25.10;80.30;;;;;;5037525;28;20049;-79
2023/08/17 08:08:46;;;;;;;3.50;3.30;;;25.10;79.90;;;;;;5020482;28;20025;-80
2023/08/17 08:11:12;;;;;;;3.15;2.95;;;25.20;79.70;;;;;;5036675;28;20030;-79
2023/08/17 08:13:37;;;;;;;3.28;3.08;;;25.40;79.30;;;;;;5036880;28;20017;-80
2023/08/17 08:16:03;;;;;;;3.25;3.05;;;25.50;78.90;;;;;;5020099;28;20052;-78
2023/08/17 08:18:29;;;;;;;2.50;2.40;;;25.70;78.40;;;;;;5036650;28;20037;-77
2023/08/17 08:20:54;;;;;;;3.70;3.40;;;25.80;77.80;;;;;;5020651;28;20017;-79
2023/08/17 08:23:20;;;;;;;3.20;3.00;;;25.90;77.00;;;;;;5037646;28;20041;-81
2023/08/17 08:25:46;;;;;;;3.90;3.60;;;26.00;77.00;;;;;;5037189;28;20034;-80
2023/08/17 08:28:11;;;;;;;3.20;3.00;;;26.10;76.80;;;;;;5020428;28;20014;-79
2023/08/17 08:30:37;;;;;;;3.00;2.80;;;26.20;76.50;;;;;;5037267;28;20026;-79
2023/08/17 08:33:10;;;;;;;3.33;3.13;;;26.40;75.80;;;;;;5036485;28;20045;-81
2023/08/17 08:35:35;;;;;;;2.95;2.75;;;26.50;75.00;;;;;;5019551;28;20114;-78
2023/08/17 08:38:04;;;;;;;3.03;2.83;;;26.60;74.70;;;;;;5037397;28;20046;-80
2023/08/17 08:40:30;;;;;;;2.55;2.45;;;26.80;74.20;;;;;;5037633;28;20030;-79
2023/08/17 08:42:57;;;;;;;2.63;2.50;;;26.90;73.60;;;;;;5037023;28;20014;-80
2023/08/17 08:45:24;;;;;;;3.22;3.03;;;27.00;73.00;;;;;;5019421;28;20041;-80
2023/08/17 08:47:51;;;;;;;3.20;3.00;;;27.00;72.80;;;;;;5037183;28;20030;-77
2023/08/17 08:50:23;;;;;;;3.85;3.55;;;27.00;73.10;;;;;;5019890;28;20088;-78
2023/08/17 08:53:03;;;;;;;3.38;3.08;;;27.20;72.60;;;;;;5037081;28;20080;-80
2023/08/17 08:55:38;;;;;;;3.88;3.58;;;27.30;72.40;;;;;;5036877;28;20022;-78
2023/08/17 08:58:05;;;;;;;4.25;3.85;;;27.40;71.70;;;;;;5037030;28;20022;-78
2023/08/17 09:00:32;;;;;;;3.97;3.70;;;27.50;70.90;;;;;;5037128;28;20068;-80
2023/08/17 09:02:59;;;;;;;4.25;3.95;;;27.60;70.70;;;;;;5036944;28;20014;-81
2023/08/17 09:05:25;;;;;;;4.05;3.75;;;27.60;70.40;;;;;;5037518;28;20082;-79
2023/08/17 09:07:52;;;;;;;4.75;4.35;;;27.60;70.30;;;;;;5037462;28;20035;-81
2023/08/17 09:10:18;;;;;;;4.78;4.38;;;27.70;70.10;;;;;;5020408;28;20029;-79
2023/08/17 09:12:50;;;;;;;4.40;4.10;;;27.90;70.10;;;;;;5036643;28;20030;-81
2023/08/17 09:15:16;;;;;;;4.00;3.80;;;28.10;69.40;;;;;;5036650;28;20034;-78
2023/08/17 09:17:43;;;;;;;4.20;3.90;;;28.30;68.70;;;;;;5037044;28;20080;-78
2023/08/17 09:20:09;;;;;;;4.40;4.10;;;28.40;68.50;;;;;;5037015;28;20010;-78
2023/08/17 09:22:49;;;;;;;4.18;3.88;;;28.50;68.10;;;;;;5036991;28;20037;-80
2023/08/17 09:25:23;;;;;;;3.80;3.50;;;28.80;67.60;;;;;;5036988;28;20022;-78
2023/08/17 09:27:49;;;;;;;4.50;4.20;;;28.90;66.90;;;;;;5036716;28;20022;-78
2023/08/17 09:30:14;;;;;;;4.80;4.40;;;28.90;66.50;;;;;;5038572;28;20025;-78
2023/08/17 09:32:41;;;;;;;4.45;4.15;;;28.90;66.50;;;;;;5040041;28;20010;-78
2023/08/17 09:35:08;;;;;;;4.50;4.20;;;29.00;66.90;;;;;;5023418;28;20040;-81
2023/08/17 09:37:34;;;;;;;5.10;4.70;;;29.10;66.70;;;;;;5039798;28;20038;-79
2023/08/17 09:40:00;;;;;;;4.82;4.53;;;29.20;66.60;;;;;;5039322;28;20025;-79
2023/08/17 09:42:27;;;;;;;4.55;4.25;;;29.50;65.80;;;;;;5039731;28;20038;-79
2023/08/17 09:44:53;;;;;;;5.32;4.82;;;29.60;65.30;;;;;;5030044;28;20120;-79
2023/08/17 09:47:22;;;;;;;4.43;4.13;;;29.70;64.40;;;;;;5033308;28;20480;-78
2023/08/17 09:49:54;;;;;;;5.07;4.65;;;29.70;64.00;;;;;;5037884;28;20491;-79
2023/08/17 09:52:21;;;;;;;4.82;4.50;;;29.50;64.10;;;;;;5034764;28;20021;-80
2023/08/17 09:54:47;;;;;;;4.75;4.43;;;29.20;64.80;;;;;;5034808;28;20026;-79
2023/08/17 09:57:14;;;;;;;4.88;4.47;;;29.20;64.90;;;;;;5033231;28;20095;-78
2023/08/17 09:59:40;;;;;;;5.07;4.57;;;29.20;64.80;;;;;;5032077;28;20044;-79
2023/08/17 10:02:19;;;;;;;5.13;4.18;;;29.40;64.40;;;;;;5037988;28;20038;-79
2023/08/17 10:04:51;;;;;;;4.60;4.30;;;29.50;64.00;;;;;;5033400;28;20061;-79
2023/08/17 10:07:19;;;;;;;4.20;3.90;;;29.60;64.10;;;;;;5031485;28;20121;-79
2023/08/17 10:10:03;;;;;;;4.30;4.00;;;29.50;64.20;;;;;;5033166;28;20048;-80
2023/08/17 10:12:36;;;;;;;4.90;4.50;;;29.60;63.80;;;;;;5033930;28;20052;-80
2023/08/17 10:15:10;;;;;;;4.50;4.20;;;29.60;63.60;;;;;;5034234;28;20041;-78
2023/08/17 10:17:44;;;;;;;4.38;4.07;;;29.70;63.20;;;;;;5028733;28;20022;-78
2023/08/17 10:20:11;;;;;;;4.05;3.75;;;29.90;62.60;;;;;;5014791;28;20029;-79
2023/08/17 10:22:50;;;;;;;4.47;4.07;;;30.10;61.50;;;;;;5015806;28;20090;-79
2023/08/17 10:25:16;;;;;;;4.22;3.83;;;30.60;60.60;;;;;;5015937;28;20031;-80
2023/08/17 10:27:42;;;;;;;4.30;4.00;;;31.30;59.30;;;;;;5009124;28;20492;-78
2023/08/17 10:30:10;;;;;;;3.95;3.67;;;31.60;57.80;;;;;;4984244;28;20026;-79
2023/08/17 10:32:36;;;;;;;3.42;3.22;;;31.70;57.30;;;;;;5002622;28;20033;-79
2023/08/17 10:35:04;;;;;;;3.60;3.40;;;31.80;57.10;;;;;;5018267;28;20030;-79
2023/08/17 10:37:30;;;;;;;3.75;3.55;;;32.00;56.20;;;;;;5022042;28;20037;-79
2023/08/17 10:39:57;;;;;;;4.15;3.83;;;32.00;56.20;;;;;;5021419;28;20028;-79
2023/08/17 10:42:35;;;;;;;4.30;4.00;;;32.00;56.30;;;;;;5020899;28;20092;-78
2023/08/17 10:45:03;;;;;;;4.38;3.97;;;31.90;55.90;;;;;;5022224;28;20485;-79
2023/08/17 10:47:32;;;;;;;3.60;3.30;;;31.70;55.80;;;;;;5021458;28;20075;-79
2023/08/17 10:50:24;;;;;;;4.50;3.53;;;31.50;56.30;;;;;;5010331;28;20049;-78
2023/08/17 10:52:53;;;;;;;3.95;3.72;;;31.50;56.20;;;;;;5009000;28;20026;-78
2023/08/17 10:55:52;;;;;;;4.63;4.32;;;31.40;56.80;;;;;;5021207;28;20033;-79
2023/08/17 10:58:17;;;;;;;4.18;3.88;;;31.20;57.40;;;;;;5022734;28;20026;-78
2023/08/17 11:00:44;;;;;;;3.88;3.67;;;30.90;57.60;;;;;;5017831;28;20018;-79
2023/08/17 11:03:18;;;;;;;4.43;4.13;;;30.70;58.20;;;;;;5018169;28;20044;-78
2023/08/17 11:05:49;;;;;;;4.30;4.05;;;30.60;58.70;;;;;;5017964;28;20017;-78
2023/08/17 11:08:38;;;;;;;4.93;4.53;;;30.40;59.80;;;;;;5028626;28;20104;-76
2023/08/17 11:11:09;;;;;;;5.55;5.15;;;30.20;60.80;;;;;;5018242;28;20537;-79
2023/08/17 11:13:36;;;;;;;5.00;4.60;;;30.30;61.30;;;;;;5018792;28;20050;-79
2023/08/17 11:16:03;;;;;;;5.25;4.85;;;30.60;60.90;;;;;;5018084;28;20022;-80
2023/08/17 11:18:29;;;;;;;5.05;4.65;;;30.70;60.30;;;;;;5000349;28;20049;-78
2023/08/17 11:20:55;;;;;;;4.72;4.43;;;30.60;60.30;;;;;;5001976;28;20473;-78
2023/08/17 11:23:22;;;;;;;4.72;4.43;;;30.40;60.70;;;;;;4998178;28;20073;-78
2023/08/17 11:25:48;;;;;;;4.93;4.40;;;30.40;61.10;;;;;;4998831;28;20125;-79
2023/08/17 11:28:14;;;;;;;5.10;4.70;;;30.60;61.10;;;;;;5022590;28;20154;-79
2023/08/17 11:30:41;;;;;;;5.22;4.70;;;30.70;60.90;;;;;;5016119;28;20054;-79
2023/08/17 11:33:08;;;;;;;5.07;4.68;;;30.70;60.50;;;;;;5019025;28;20017;-79
2023/08/17 11:35:34;;;;;;;4.85;4.45;;;30.60;60.50;;;;;;5001259;28;20629;-78
2023/08/17 11:38:00;;;;;;;6.50;4.80;;;30.60;60.90;;;;;;4984506;28;20029;-79
2023/08/17 11:40:26;;;;;;;4.90;4.57;;;30.50;61.30;;;;;;4983852;28;20466;-79
2023/08/17 11:42:53;;;;;;;5.10;4.70;;;30.60;62.00;;;;;;5001002;28;20029;-81
2023/08/17 11:45:19;;;;;;;5.88;5.38;;;30.80;62.40;;;;;;5001263;28;20042;-80
2023/08/17 11:47:47;;;;;;;5.50;5.10;;;31.00;61.80;;;;;;5000937;28;20026;-79
2023/08/17 11:50:14;;;;;;;5.72;5.32;;;31.20;61.70;;;;;;5002783;28;20034;-79
2023/08/17 11:52:40;;;;;;;4.63;4.32;;;31.40;60.60;;;;;;5004828;28;20027;-80
2023/08/17 11:55:09;;;;;;;4.50;4.20;;;31.40;59.80;;;;;;5011399;28;20030;-80
2023/08/17 11:57:36;;;;;;;5.80;4.93;;;31.30;59.60;;;;;;5007769;28;20060;-80
2023/08/17 12:00:09;;;;;;;5.57;5.03;;;31.00;59.80;;;;;;5008051;28;20090;-79
2023/08/17 12:02:41;;;;;;;7.13;4.75;;;30.80;60.40;;;;;;5006471;28;20030;-80
2023/08/17 12:05:09;;;;;;;5.28;4.85;;;30.90;60.50;;;;;;5021883;28;20022;-80
2023/08/17 12:07:35;;;;;;;6.10;5.00;;;31.10;60.60;;;;;;5022084;28;20029;-79
2023/08/17 12:10:03;;;;;;;5.32;4.40;;;31.20;60.60;;;;;;5020956;28;20030;-79
2023/08/17 12:12:29;;;;;;;4.78;4.47;;;31.40;59.80;;;;;;5020352;28;20056;-79
2023/08/17 12:14:55;;;;;;;5.50;4.45;;;31.30;59.50;;;;;;5019211;28;20022;-79
2023/08/17 12:17:22;;;;;;;5.32;4.82;;;31.30;59.20;;;;;;5019828;28;20041;-80
2023/08/17 12:19:54;;;;;;;4.85;4.35;;;31.40;58.80;;;;;;5020645;28;20032;-78
2023/08/17 12:22:24;;;;;;;5.13;4.72;;;31.30;59.20;;;;;;5018193;28;20018;-79
2023/08/17 12:24:50;;;;;;;5.30;4.90;;;31.30;59.50;;;;;;5018397;28;20151;-79
2023/08/17 12:27:15;;;;;;;5.80;5.20;;;31.40;59.40;;;;;;5018837;28;20080;-79
2023/08/17 12:29:48;;;;;;;5.65;4.85;;;31.40;59.50;;;;;;5001828;28;20410;-79
2023/08/17 12:32:18;;;;;;;6.25;5.05;;;31.40;58.80;;;;;;5019781;28;20026;-80
2023/08/17 12:34:44;;;;;;;5.10;4.80;;;31.40;58.50;;;;;;5001904;28;20080;-81
2023/08/17 12:37:10;;;;;;;5.60;5.05;;;31.40;58.80;;;;;;4985041;28;20038;-80
2023/08/17 12:39:37;;;;;;;5.32;4.82;;;31.40;58.40;;;;;;5001525;28;20488;-78
2023/08/17 12:42:03;;;;;;;6.38;5.80;;;31.40;58.00;;;;;;5021014;28;20092;-78
2023/08/17 12:44:29;;;;;;;6.97;5.60;;;31.40;58.00;;;;;;5001247;28;20433;-78
2023/08/17 12:46:54;;;;;;;7.63;5.13;;;31.60;58.00;;;;;;5020179;28;20112;-78
2023/08/17 12:49:20;;;;;;;5.50;5.10;;;31.80;57.80;;;;;;5000571;28;20388;-80
2023/08/17 12:51:46;;;;;;;5.20;4.82;;;32.00;57.00;;;;;;5020256;28;20508;-79
2023/08/17 12:54:11;;;;;;;6.85;4.63;;;32.10;56.50;;;;;;5020423;28;20311;-80
2023/08/17 12:56:37;;;;;;;5.50;4.80;;;32.10;55.20;;;;;;5002530;28;20094;-80
2023/08/17 12:59:02;;;;;;;4.38;4.13;;;32.20;55.40;;;;;;5019047;28;20033;-80
2023/08/17 13:01:28;;;;;;;5.47;4.70;;;32.00;54.60;;;;;;5000749;28;20212;-79
2023/08/17 13:03:54;;;;;;;5.55;4.88;;;32.00;54.80;;;;;;5018645;28;20045;-80
2023/08/17 13:06:20;;;;;;;5.28;4.82;;;32.10;54.40;;;;;;5030129;28;20397;-80
2023/08/17 13:08:45;;;;;;;5.10;4.70;;;32.10;53.70;;;;;;5034392;28;20030;-78
2023/08/17 13:11:11;;;;;;;5.57;5.18;;;32.20;53.50;;;;;;5040680;28;20053;-80
2023/08/17 13:13:37;;;;;;;4.40;4.10;;;32.30;53.10;;;;;;5007536;28;20030;-80
2023/08/17 13:16:03;;;;;;;5.05;4.65;;;32.40;52.80;;;;;;5022385;28;20033;-79